createdAt,value
2023-05-20T00:02:46.446Z,18.40
2023-05-20T00:05:49.499Z,18.40
2023-05-20T00:08:51.807Z,18.40
2023-05-20T00:11:54.100Z,18.40
2023-05-20T00:14:56.680Z,18.40
2023-05-20T00:18:00.636Z,18.40
2023-05-20T00:21:03.018Z,18.40
2023-05-20T00:24:05.467Z,18.40
2023-05-20T00:27:07.729Z,18.40
2023-05-20T00:30:10.677Z,18.40
2023-05-20T00:33:13.506Z,18.40
2023-05-20T00:36:15.904Z,18.40
2023-05-20T00:39:18.319Z,18.40
2023-05-20T00:42:28.109Z,18.40
2023-05-20T00:45:31.165Z,18.40
2023-05-20T00:48:42.882Z,18.40
2023-05-20T00:51:45.540Z,18.40
2023-05-20T00:54:48.078Z,18.30
2023-05-20T00:57:50.956Z,18.40
2023-05-20T01:00:53.995Z,18.40
2023-05-20T01:03:56.610Z,18.40
2023-05-20T01:07:05.013Z,18.40
2023-05-20T01:10:08.191Z,18.40
2023-05-20T01:13:15.481Z,18.40
2023-05-20T01:16:19.780Z,18.30
2023-05-20T01:19:34.287Z,18.40
2023-05-20T01:22:47.532Z,18.30
2023-05-20T01:25:49.802Z,18.40
2023-05-20T01:28:52.142Z,18.30
2023-05-20T01:31:57.096Z,18.30
2023-05-20T01:35:00.796Z,18.30
2023-05-20T01:38:05.613Z,18.30
2023-05-20T01:41:08.626Z,18.30
2023-05-20T01:44:11.262Z,18.30
2023-05-20T01:47:13.811Z,18.30
2023-05-20T01:50:17.492Z,18.30
2023-05-20T01:53:19.818Z,18.30
2023-05-20T01:56:22.441Z,18.30
2023-05-20T01:59:25.156Z,18.30
2023-05-20T02:02:27.990Z,18.30
2023-05-20T02:05:31.173Z,18.30
2023-05-20T02:08:33.946Z,18.30
2023-05-20T02:11:36.489Z,18.30
2023-05-20T02:14:39.172Z,18.30
2023-05-20T02:17:44.105Z,18.30
2023-05-20T02:20:46.977Z,18.30
2023-05-20T02:23:50.105Z,18.30
2023-05-20T02:26:54.764Z,18.30
2023-05-20T02:29:57.534Z,18.30
2023-05-20T02:33:00.212Z,18.30
2023-05-20T02:36:02.738Z,18.30
2023-05-20T02:39:05.025Z,18.30
2023-05-20T02:42:07.393Z,18.30
2023-05-20T02:45:10.181Z,18.20
2023-05-20T02:48:14.074Z,18.30
2023-05-20T02:51:16.480Z,18.30
2023-05-20T02:54:18.816Z,18.30
2023-05-20T02:57:21.368Z,18.30
2023-05-20T03:00:23.916Z,18.30
2023-05-20T03:03:27.546Z,18.30
2023-05-20T03:06:32.638Z,18.30
2023-05-20T03:09:34.967Z,18.30
2023-05-20T03:12:37.335Z,18.30
2023-05-20T03:15:39.888Z,18.30
2023-05-20T03:18:43.133Z,18.30
2023-05-20T03:21:46.782Z,18.20
2023-05-20T03:24:49.200Z,18.30
2023-05-20T03:27:51.753Z,18.30
2023-05-20T03:30:54.237Z,18.30
2023-05-20T03:33:57.273Z,18.30
2023-05-20T03:37:00.515Z,18.30
2023-05-20T03:40:06.392Z,18.20
2023-05-20T03:43:10.136Z,18.30
2023-05-20T03:46:12.639Z,18.20
2023-05-20T03:49:15.034Z,18.20
2023-05-20T03:52:17.381Z,18.30
2023-05-20T03:55:20.694Z,18.20
2023-05-20T03:58:23.561Z,18.20
2023-05-20T04:01:26.071Z,18.20
2023-05-20T04:04:29.133Z,18.20
2023-05-20T04:07:31.568Z,18.20
2023-05-20T04:10:34.240Z,18.20
2023-05-20T04:13:37.098Z,18.20
2023-05-20T04:16:39.678Z,18.20
2023-05-20T04:19:42.948Z,18.20
2023-05-20T04:22:45.882Z,18.20
2023-05-20T04:25:49.022Z,18.20
2023-05-20T04:28:51.510Z,18.20
2023-05-20T04:31:53.962Z,18.20
2023-05-20T04:34:56.391Z,18.20
2023-05-20T04:38:00.059Z,18.20
2023-05-20T04:41:02.862Z,18.20
2023-05-20T04:44:06.585Z,18.20
2023-05-20T04:47:09.039Z,18.20
2023-05-20T04:50:16.302Z,18.20
2023-05-20T04:53:24.444Z,18.20
2023-05-20T04:56:26.787Z,18.20
2023-05-20T04:59:29.120Z,18.20
2023-05-20T05:02:31.483Z,18.20
2023-05-20T05:05:36.506Z,18.20
2023-05-20T05:08:38.861Z,18.20
2023-05-20T05:11:41.231Z,18.20
2023-05-20T05:14:44.155Z,18.20
2023-05-20T05:17:46.611Z,18.20
2023-05-20T05:20:49.354Z,18.20
2023-05-20T05:23:51.660Z,18.20
2023-05-20T05:26:55.216Z,18.20
2023-05-20T05:29:57.590Z,18.20
2023-05-20T05:33:00.157Z,18.20
2023-05-20T05:36:02.886Z,18.20
2023-05-20T05:39:05.217Z,18.20
2023-05-20T05:42:08.057Z,18.20
2023-05-20T05:45:11.713Z,18.20
2023-05-20T05:48:14.260Z,18.20
2023-05-20T05:51:18.027Z,18.20
2023-05-20T05:54:21.838Z,18.20
2023-05-20T05:57:25.080Z,18.20
2023-05-20T06:00:27.924Z,18.20
2023-05-20T06:03:31.391Z,18.20
2023-05-20T06:06:34.307Z,18.20
2023-05-20T06:09:36.701Z,18.20
2023-05-20T06:12:39.016Z,18.20
2023-05-20T06:15:41.774Z,18.20
2023-05-20T06:18:46.098Z,18.20
2023-05-20T06:21:49.348Z,18.20
2023-05-20T06:24:51.647Z,18.20
2023-05-20T06:27:54.082Z,18.20
2023-05-20T06:30:58.026Z,18.20
2023-05-20T06:34:02.294Z,18.20
2023-05-20T06:37:04.823Z,18.20
2023-05-20T06:40:08.014Z,18.20
2023-05-20T06:43:11.593Z,18.20
2023-05-20T06:46:36.907Z,18.20
2023-05-20T06:49:44.447Z,18.20
2023-05-20T06:52:48.053Z,18.20
2023-05-20T06:55:51.333Z,18.20
2023-05-20T06:58:54.747Z,18.20
2023-05-20T07:01:57.199Z,18.20
2023-05-20T07:04:59.989Z,18.20
2023-05-20T07:08:02.632Z,18.20
2023-05-20T07:11:05.071Z,18.20
2023-05-20T07:14:08.883Z,18.20
2023-05-20T07:17:12.012Z,18.20
2023-05-20T07:20:14.860Z,18.20
2023-05-20T07:23:17.501Z,18.20
2023-05-20T07:26:23.951Z,18.20
2023-05-20T07:29:26.319Z,18.20
2023-05-20T07:32:29.033Z,18.20
2023-05-20T07:35:31.677Z,18.20
2023-05-20T07:38:34.106Z,18.20
2023-05-20T07:41:40.429Z,18.20
2023-05-20T07:44:42.747Z,18.20
2023-05-20T07:47:45.472Z,18.20
2023-05-20T07:50:48.159Z,18.20
2023-05-20T07:53:50.926Z,18.20
2023-05-20T07:56:54.195Z,18.20
2023-05-20T07:59:56.783Z,18.20
2023-05-20T08:02:59.957Z,18.20
2023-05-20T08:06:08.223Z,18.20
2023-05-20T08:09:14.025Z,18.20
2023-05-20T08:12:21.961Z,18.20
2023-05-20T08:15:25.203Z,18.20
2023-05-20T08:18:27.954Z,18.20
2023-05-20T08:21:30.372Z,18.20
2023-05-20T08:24:32.912Z,18.10
2023-05-20T08:27:38.908Z,18.10
2023-05-20T08:30:44.358Z,18.10
2023-05-20T08:33:46.883Z,18.10
2023-05-20T08:36:49.822Z,18.10
2023-05-20T08:39:52.161Z,18.10
2023-05-20T08:42:54.487Z,18.10
2023-05-20T08:45:58.268Z,18.10
2023-05-20T08:49:02.819Z,18.10
2023-05-20T08:52:06.734Z,18.10
2023-05-20T08:55:11.649Z,18.10
2023-05-20T08:58:16.284Z,18.10
2023-05-20T09:01:18.648Z,18.00
2023-05-20T09:04:21.044Z,18.00
2023-05-20T09:07:29.793Z,18.00
2023-05-20T09:10:33.462Z,18.00
2023-05-20T09:13:35.783Z,18.00
2023-05-20T09:16:41.453Z,18.00
2023-05-20T09:19:44.032Z,18.00
2023-05-20T09:22:46.459Z,18.00
2023-05-20T09:25:52.205Z,18.00
2023-05-20T09:28:56.487Z,18.00
2023-05-20T09:32:01.850Z,18.00
2023-05-20T09:35:06.498Z,18.00
2023-05-20T09:38:11.463Z,18.00
2023-05-20T09:41:15.609Z,18.00
2023-05-20T09:44:19.102Z,18.00
2023-05-20T09:47:21.634Z,18.00
2023-05-20T09:50:25.983Z,18.00
2023-05-20T09:53:28.976Z,18.00
2023-05-20T09:56:32.174Z,18.00
2023-05-20T09:59:37.243Z,18.00
2023-05-20T10:02:44.103Z,18.00
2023-05-20T10:06:07.627Z,18.00
2023-05-20T10:09:12.955Z,17.90
2023-05-20T10:12:34.484Z,18.00
2023-05-20T10:16:16.080Z,18.00
2023-05-20T10:19:32.594Z,18.00
2023-05-20T10:22:35.077Z,18.10
2023-05-20T10:25:37.567Z,18.10
2023-05-20T10:28:41.580Z,18.10
2023-05-20T10:31:50.653Z,18.10
2023-05-20T10:34:53.144Z,18.10
2023-05-20T10:38:07.541Z,18.10
2023-05-20T10:41:13.419Z,18.10
2023-05-20T10:44:15.670Z,18.10
2023-05-20T10:47:25.545Z,18.10
2023-05-20T10:50:35.333Z,18.10
2023-05-20T10:53:42.360Z,18.10
2023-05-20T10:56:53.783Z,18.10
2023-05-20T10:59:57.089Z,18.10
2023-05-20T11:02:59.894Z,18.10
2023-05-20T11:06:02.321Z,18.10
2023-05-20T11:09:07.599Z,18.10
2023-05-20T11:12:09.990Z,18.10
2023-05-20T11:15:13.485Z,18.10
2023-05-20T11:18:17.870Z,18.10
2023-05-20T11:21:21.076Z,18.10
2023-05-20T11:24:28.192Z,18.10
2023-05-20T11:27:30.585Z,18.10
2023-05-20T11:30:33.562Z,18.10
2023-05-20T11:33:36.180Z,18.10
2023-05-20T11:36:42.988Z,18.10
2023-05-20T11:39:45.274Z,18.10
2023-05-20T11:42:47.649Z,18.10
2023-05-20T11:46:02.072Z,18.10
2023-05-20T11:49:04.621Z,18.20
2023-05-20T11:52:09.695Z,18.10
2023-05-20T11:55:12.182Z,18.10
2023-05-20T11:58:31.087Z,18.10
2023-05-20T12:01:41.097Z,18.10
2023-05-20T12:04:43.414Z,18.10
2023-05-20T12:07:45.810Z,18.10
2023-05-20T12:10:48.064Z,18.10
2023-05-20T12:13:50.618Z,18.10
2023-05-20T12:16:53.932Z,18.10
2023-05-20T12:19:56.276Z,18.10
2023-05-20T12:22:59.108Z,18.20
2023-05-20T12:26:01.469Z,18.20
2023-05-20T12:29:03.947Z,18.20
2023-05-20T12:32:06.592Z,18.20
2023-05-20T12:35:09.629Z,18.20
2023-05-20T12:38:11.925Z,18.20
2023-05-20T12:41:14.352Z,18.20
2023-05-20T12:44:16.692Z,18.20
2023-05-20T12:47:20.785Z,18.20
2023-05-20T12:50:24.329Z,18.20
2023-05-20T12:53:26.638Z,18.20
2023-05-20T12:56:28.932Z,18.30
2023-05-20T12:59:31.255Z,18.30
2023-05-20T13:02:33.672Z,18.20
2023-05-20T13:05:36.144Z,18.20
2023-05-20T13:08:38.655Z,18.30
2023-05-20T13:11:41.155Z,18.30
2023-05-20T13:14:43.637Z,18.30
2023-05-20T13:17:46.123Z,18.30
2023-05-20T13:20:48.446Z,18.30
2023-05-20T13:23:50.795Z,18.20
2023-05-20T13:26:53.019Z,18.30
2023-05-20T13:29:55.320Z,18.30
2023-05-20T13:32:57.754Z,18.30
2023-05-20T13:36:00.247Z,18.30
2023-05-20T13:39:02.675Z,18.30
2023-05-20T13:42:05.052Z,18.30
2023-05-20T13:45:08.080Z,18.30
2023-05-20T13:48:10.419Z,18.30
2023-05-20T13:51:12.908Z,18.30
2023-05-20T13:54:15.313Z,18.30
2023-05-20T13:57:17.708Z,18.30
2023-05-20T14:00:20.456Z,18.30
2023-05-20T14:03:23.023Z,18.30
2023-05-20T14:06:26.408Z,18.30
2023-05-20T14:09:28.709Z,18.30
2023-05-20T14:12:30.923Z,18.30
2023-05-20T14:15:33.266Z,18.30
2023-05-20T14:18:35.639Z,18.30
2023-05-20T14:21:37.998Z,18.30
2023-05-20T14:24:40.491Z,18.40
2023-05-20T14:27:43.996Z,18.40
2023-05-20T14:30:46.302Z,18.40
2023-05-20T14:33:48.725Z,18.40
2023-05-20T14:36:51.161Z,18.40
2023-05-20T14:39:53.429Z,18.40
2023-05-20T14:42:55.974Z,18.40
2023-05-20T14:45:58.292Z,18.40
2023-05-20T14:49:00.758Z,18.40
2023-05-20T14:52:03.323Z,18.40
2023-05-20T14:55:06.102Z,18.40
2023-05-20T14:58:08.537Z,18.50
2023-05-20T15:01:10.978Z,18.40
2023-05-20T15:04:13.322Z,18.40
2023-05-20T15:07:15.931Z,18.40
2023-05-20T15:10:18.260Z,18.50
2023-05-20T15:13:20.608Z,18.50
2023-05-20T15:16:24.625Z,18.50
2023-05-20T15:19:27.099Z,18.50
2023-05-20T15:22:29.723Z,18.50
2023-05-20T15:25:32.065Z,18.50
2023-05-20T15:28:34.467Z,18.50
2023-05-20T15:31:36.998Z,18.50
2023-05-20T15:34:39.739Z,18.50
2023-05-20T15:37:42.175Z,18.50
2023-05-20T15:40:44.455Z,18.50
2023-05-20T15:43:46.919Z,18.50
2023-05-20T15:46:49.257Z,18.50
2023-05-20T15:49:51.751Z,18.50
2023-05-20T15:52:54.705Z,18.50
2023-05-20T15:55:56.999Z,18.60
2023-05-20T15:58:59.324Z,18.50
2023-05-20T16:02:01.731Z,18.50
2023-05-20T16:05:04.982Z,18.50
2023-05-20T16:08:07.391Z,18.50
2023-05-20T16:11:09.874Z,18.60
2023-05-20T16:14:12.539Z,18.60
2023-05-20T16:17:16.433Z,18.50
2023-05-20T16:20:18.862Z,18.60
2023-05-20T16:23:21.512Z,18.60
2023-05-20T16:26:25.030Z,18.50
2023-05-20T16:29:27.643Z,18.60
2023-05-20T16:32:30.201Z,18.60
2023-05-20T16:35:32.722Z,18.60
2023-05-20T16:38:35.125Z,18.60
2023-05-20T16:41:37.514Z,18.60
2023-05-20T16:44:39.869Z,18.60
2023-05-20T16:47:42.124Z,18.60
2023-05-20T16:50:44.473Z,18.60
2023-05-20T16:53:46.736Z,18.60
2023-05-20T16:56:49.019Z,18.50
2023-05-20T16:59:51.649Z,18.50
2023-05-20T17:02:54.008Z,18.60
2023-05-20T17:05:56.344Z,18.50
2023-05-20T17:08:59.797Z,18.50
2023-05-20T17:12:03.015Z,18.60
2023-05-20T17:15:06.547Z,18.60
2023-05-20T17:18:08.868Z,18.50
2023-05-20T17:21:11.474Z,18.50
2023-05-20T17:24:13.787Z,18.50
2023-05-20T17:27:16.548Z,18.60
2023-05-20T17:30:19.058Z,18.50
2023-05-20T17:33:21.708Z,18.50
2023-05-20T17:36:24.479Z,18.50
2023-05-20T17:39:26.839Z,18.50
2023-05-20T17:42:29.125Z,18.60
2023-05-20T17:45:31.478Z,18.60
2023-05-20T17:48:33.722Z,18.60
2023-05-20T17:51:36.041Z,18.50
2023-05-20T17:54:38.345Z,18.50
2023-05-20T17:57:40.916Z,18.50
2023-05-20T18:00:43.391Z,18.50
2023-05-20T18:03:45.964Z,18.60
2023-05-20T18:06:48.426Z,18.60
2023-05-20T18:09:51.168Z,18.50
2023-05-20T18:12:53.644Z,18.50
2023-05-20T18:15:56.165Z,18.60
2023-05-20T18:18:58.669Z,18.60
2023-05-20T18:22:02.934Z,18.60
2023-05-20T18:25:05.973Z,18.60
2023-05-20T18:28:09.081Z,18.60
2023-05-20T18:31:11.633Z,18.50
2023-05-20T18:34:13.936Z,18.50
2023-05-20T18:37:16.659Z,18.50
2023-05-20T18:40:21.006Z,18.60
2023-05-20T18:43:23.303Z,18.60
2023-05-20T18:46:28.606Z,18.60
2023-05-20T18:49:31.041Z,18.50
2023-05-20T18:52:33.326Z,18.50
2023-05-20T18:55:35.733Z,18.50
2023-05-20T18:58:38.065Z,18.60
2023-05-20T19:01:40.437Z,18.50
2023-05-20T19:04:42.785Z,18.60
2023-05-20T19:07:45.092Z,18.60
2023-05-20T19:10:47.359Z,18.50
2023-05-20T19:13:49.650Z,18.50
2023-05-20T19:16:53.155Z,18.60
2023-05-20T19:19:55.479Z,18.50
2023-05-20T19:22:57.758Z,18.60
2023-05-20T19:26:00.097Z,18.50
2023-05-20T19:29:02.611Z,18.50
2023-05-20T19:32:05.327Z,18.50
2023-05-20T19:35:07.966Z,18.50
2023-05-20T19:38:10.173Z,18.50
2023-05-20T19:41:13.166Z,18.50
2023-05-20T19:44:15.767Z,18.50
2023-05-20T19:47:18.095Z,18.50
2023-05-20T19:50:20.446Z,18.50
2023-05-20T19:53:22.856Z,18.60
2023-05-20T19:56:25.203Z,18.60
2023-05-20T19:59:27.666Z,18.60
2023-05-20T20:02:29.890Z,18.50
2023-05-20T20:05:32.314Z,18.50
2023-05-20T20:08:34.748Z,18.50
2023-05-20T20:11:37.207Z,18.60
2023-05-20T20:14:39.613Z,18.50
2023-05-20T20:17:45.784Z,18.50
2023-05-20T20:20:48.911Z,18.50
2023-05-20T20:23:51.455Z,18.50
2023-05-20T20:26:57.331Z,18.50
2023-05-20T20:29:59.983Z,18.50
2023-05-20T20:33:06.528Z,18.50
2023-05-20T20:36:09.657Z,18.50
2023-05-20T20:39:19.295Z,18.50
2023-05-20T20:42:24.421Z,18.50
2023-05-20T20:45:26.812Z,18.50
2023-05-20T20:48:29.196Z,18.50
2023-05-20T20:51:32.067Z,18.50
2023-05-20T20:54:34.426Z,18.50
2023-05-20T20:57:37.059Z,18.40
2023-05-20T21:00:40.380Z,18.40
2023-05-20T21:03:44.870Z,18.50
2023-05-20T21:06:47.309Z,18.40
2023-05-20T21:09:55.165Z,18.40
2023-05-20T21:12:58.819Z,18.40
2023-05-20T21:16:01.533Z,18.40
2023-05-20T21:19:04.252Z,18.40
2023-05-20T21:22:06.726Z,18.40
2023-05-20T21:25:09.209Z,18.40
2023-05-20T21:28:11.792Z,18.40
2023-05-20T21:31:14.261Z,18.40
2023-05-20T21:34:16.677Z,18.40
2023-05-20T21:37:19.003Z,18.40
2023-05-20T21:40:21.290Z,18.40
2023-05-20T21:43:23.680Z,18.40
2023-05-20T21:46:25.933Z,18.40
2023-05-20T21:49:28.367Z,18.40
2023-05-20T21:52:30.733Z,18.40
2023-05-20T21:55:33.066Z,18.40
2023-05-20T21:58:41.247Z,18.40
2023-05-20T22:01:43.717Z,18.40
2023-05-20T22:04:45.998Z,18.40
2023-05-20T22:07:48.408Z,18.40
2023-05-20T22:10:50.681Z,18.40
2023-05-20T22:13:53.797Z,18.40
2023-05-20T22:16:56.233Z,18.40
2023-05-20T22:19:58.790Z,18.40
2023-05-20T22:23:01.570Z,18.40
2023-05-20T22:26:05.116Z,18.40
2023-05-20T22:29:07.357Z,18.40
2023-05-20T22:32:09.614Z,18.40
2023-05-20T22:35:13.443Z,18.40
2023-05-20T22:38:15.879Z,18.40
2023-05-20T22:41:18.332Z,18.40
2023-05-20T22:44:20.974Z,18.40
2023-05-20T22:47:23.434Z,18.40
2023-05-20T22:50:26.504Z,18.40
2023-05-20T22:53:28.773Z,18.40
2023-05-20T22:56:32.744Z,18.40
2023-05-20T22:59:36.836Z,18.40
2023-05-20T23:02:41.767Z,18.40
2023-05-20T23:05:44.129Z,18.40
2023-05-20T23:08:47.097Z,18.40
2023-05-20T23:11:49.418Z,18.40
2023-05-20T23:14:51.937Z,18.40
2023-05-20T23:17:54.345Z,18.40
2023-05-20T23:20:56.632Z,18.40
2023-05-20T23:23:58.973Z,18.40
2023-05-20T23:27:01.587Z,18.40
2023-05-20T23:30:04.396Z,18.40
2023-05-20T23:33:07.406Z,18.40
2023-05-20T23:36:09.869Z,18.40
2023-05-20T23:39:12.589Z,18.40
2023-05-20T23:42:15.231Z,18.40
2023-05-20T23:45:17.646Z,18.40
2023-05-20T23:48:20.139Z,18.40
2023-05-20T23:51:22.472Z,18.40
2023-05-20T23:54:24.755Z,18.40
2023-05-20T23:57:26.994Z,18.40
